Time;durP1;ratioP1;P1;durP2;ratioP2;P2;SDS_P1;SDS_P2;PMS_P1;PMS_P2;Temp;Humidity;BMP_temperature;BMP_pressure;BME280_temperature;BME280_humidity;BME280_pressure;Samples;Min_cycle;Max_cycle;Signal;HPM_P1;HPM_P2
2023/03/24 00:01:40;;;;;;;3.50;1.25;;;;;;;19.51;51.15;99783.22;5051000;28;20032;-72
2023/03/24 00:04:05;;;;;;;4.20;1.40;;;;;;;19.51;51.18;99786.69;5052025;28;20028;-73
2023/03/24 00:06:33;;;;;;;4.13;1.25;;;;;;;19.51;51.22;99776.09;5049801;28;20258;-73
2023/03/24 00:08:59;;;;;;;3.35;1.15;;;;;;;19.49;51.23;99775.44;5050641;28;20415;-73
2023/03/24 00:11:25;;;;;;;4.15;1.30;;;;;;;19.49;51.09;99778.09;5050673;28;20062;-72
2023/03/24 00:13:51;;;;;;;4.70;1.20;;;;;;;19.45;51.14;99768.81;5051584;28;20660;-75
2023/03/24 00:16:18;;;;;;;3.78;1.30;;;;;;;19.46;51.17;99762.56;5050312;28;20396;-73
2023/03/24 00:18:49;;;;;;;3.00;1.17;;;;;;;19.46;51.12;99770.47;5051054;28;20036;-73
2023/03/24 00:21:14;;;;;;;4.43;1.75;;;;;;;19.46;51.14;99769.66;5050640;28;20067;-73
2023/03/24 00:23:41;;;;;;;3.13;1.10;;;;;;;19.44;51.17;99764.53;5041714;28;20443;-73
2023/03/24 00:26:14;;;;;;;3.70;1.35;;;;;;;19.39;51.09;99759.72;5051463;28;20477;-72
2023/03/24 00:28:41;;;;;;;3.20;1.08;;;;;;;19.39;51.07;99769.44;5051274;28;20508;-72
2023/03/24 00:31:07;;;;;;;3.40;1.13;;;;;;;19.42;50.96;99771.78;5051080;28;20359;-74
2023/03/24 00:33:34;;;;;;;3.85;1.40;;;;;;;19.41;51.23;99762.22;5050405;28;20546;-73
2023/03/24 00:36:01;;;;;;;3.08;1.30;;;;;;;19.39;51.18;99757.09;5051191;28;20032;-71
2023/03/24 00:38:27;;;;;;;3.33;1.30;;;;;;;19.38;50.97;99744.84;5050870;28;20064;-73
2023/03/24 00:40:53;;;;;;;2.78;1.20;;;;;;;19.38;50.92;99739.56;5050532;28;20204;-72
2023/03/24 00:43:19;;;;;;;3.42;1.23;;;;;;;19.38;50.90;99747.50;5051284;28;20043;-72
2023/03/24 00:45:45;;;;;;;3.30;1.10;;;;;;;19.39;50.70;99735.09;5050583;28;20071;-73
2023/03/24 00:48:18;;;;;;;3.55;1.33;;;;;;;19.36;50.93;99732.81;5050121;28;20123;-73
2023/03/24 00:50:48;;;;;;;3.53;1.20;;;;;;;19.33;51.02;99726.03;5050181;28;20102;-73
2023/03/24 00:53:14;;;;;;;3.55;1.50;;;;;;;19.38;51.01;99726.38;5050858;28;20040;-73
2023/03/24 00:55:49;;;;;;;3.85;1.05;;;;;;;19.31;51.09;99714.78;5050853;28;20435;-73
2023/03/24 00:58:18;;;;;;;4.28;1.27;;;;;;;19.32;50.89;99712.97;5050979;28;20029;-73
2023/03/24 01:00:49;;;;;;;2.53;1.05;;;;;;;19.30;50.81;99712.31;5050169;28;20028;-73
2023/03/24 01:03:16;;;;;;;2.88;1.05;;;;;;;19.32;50.77;99715.59;5051285;28;20039;-72
2023/03/24 01:05:46;;;;;;;3.67;1.25;;;;;;;19.30;50.88;99712.31;5050592;28;20067;-73
2023/03/24 01:08:19;;;;;;;2.85;1.17;;;;;;;19.29;50.82;99703.53;5050055;28;20108;-73
2023/03/24 01:10:56;;;;;;;2.83;1.08;;;;;;;19.31;50.93;99720.06;5050616;28;20859;-72
2023/03/24 01:13:27;;;;;;;3.70;1.17;;;;;;;19.28;50.97;99706.34;5050156;28;20082;-73
2023/03/24 01:15:53;;;;;;;2.72;0.93;;;;;;;19.28;50.98;99706.34;5049959;28;20120;-73
2023/03/24 01:18:19;;;;;;;2.63;1.13;;;;;;;19.27;51.02;99704.69;5050150;28;20115;-72
2023/03/24 01:20:50;;;;;;;3.58;1.30;;;;;;;19.25;50.87;99701.38;5049985;28;20086;-72
2023/03/24 01:23:20;;;;;;;3.60;1.13;;;;;;;19.25;50.91;99694.28;5050087;28;20025;-73
2023/03/24 01:25:47;;;;;;;3.25;1.30;;;;;;;19.29;51.00;99692.16;5050174;28;20111;-73
2023/03/24 01:28:17;;;;;;;4.40;1.25;;;;;;;19.27;51.08;99705.53;5048696;28;20036;-73
2023/03/24 01:30:42;;;;;;;2.55;1.10;;;;;;;19.28;51.01;99695.78;5049983;28;20029;-73
2023/03/24 01:33:08;;;;;;;3.67;1.05;;;;;;;19.25;50.97;99685.53;5052415;28;20035;-73
2023/03/24 01:35:34;;;;;;;2.83;1.05;;;;;;;19.21;51.22;99688.47;5053818;28;20041;-72
2023/03/24 01:37:59;;;;;;;2.72;1.00;;;;;;;19.24;51.11;99686.53;5052558;28;20485;-73
2023/03/24 01:40:29;;;;;;;3.15;1.40;;;;;;;19.23;50.99;99684.88;5053592;28;20381;-74
2023/03/24 01:42:56;;;;;;;3.10;1.30;;;;;;;19.24;50.98;99678.59;5053567;28;20089;-72
2023/03/24 01:45:43;;;;;;;3.60;1.10;;;;;;;19.24;51.20;99682.06;5054134;28;20163;-72
2023/03/24 01:48:16;;;;;;;2.88;1.17;;;;;;;19.21;51.06;99680.56;5053632;28;20053;-73
2023/03/24 01:50:51;;;;;;;2.75;1.08;;;;;;;19.20;51.03;99673.63;5043730;28;20101;-71
2023/03/24 01:53:17;;;;;;;3.42;1.15;;;;;;;19.20;50.97;99673.63;5053606;28;20497;-72
2023/03/24 01:55:46;;;;;;;2.92;1.20;;;;;;;19.19;51.11;99669.34;5053605;28;20051;-73
2023/03/24 01:58:12;;;;;;;4.78;1.10;;;;;;;19.20;51.04;99670.16;5053431;28;20932;-72
2023/03/24 02:00:38;;;;;;;2.17;0.90;;;;;;;19.18;50.97;99662.41;5052725;28;20045;-73
2023/03/24 02:03:10;;;;;;;2.95;1.23;;;;;;;19.17;51.10;99666.03;5053137;28;20451;-72
2023/03/24 02:05:38;;;;;;;3.58;1.20;;;;;;;19.18;51.12;99657.13;5053419;28;20071;-72
2023/03/24 02:08:22;;;;;;;5.13;1.42;;;;;;;19.19;51.16;99661.41;5052862;28;20036;-71
2023/03/24 02:10:49;;;;;;;2.95;1.30;;;;;;;19.17;50.91;99646.72;5053020;28;20041;-72
2023/03/24 02:13:15;;;;;;;3.35;1.00;;;;;;;19.19;51.02;99644.75;5052956;28;20033;-72
2023/03/24 02:15:55;;;;;;;3.10;1.20;;;;;;;19.16;51.46;99645.06;5052874;28;20037;-72
2023/03/24 02:19:06;;;;;;;2.78;1.10;;;;;;;19.17;51.19;99652.81;5052626;28;20030;-72
2023/03/24 02:21:52;;;;;;;4.50;1.30;;;;;;;19.11;51.56;99650.81;5040264;28;20078;-72
2023/03/24 02:24:31;;;;;;;2.97;1.15;;;;;;;19.17;51.04;99654.66;5052686;28;20039;-71
2023/03/24 02:27:09;;;;;;;2.38;1.20;;;;;;;19.13;51.37;99662.03;5052486;28;20040;-71
2023/03/24 02:29:54;;;;;;;3.10;1.30;;;;;;;19.15;51.23;99670.66;5052272;28;20036;-72
2023/03/24 02:32:41;;;;;;;3.50;1.20;;;;;;;19.15;51.20;99659.25;5053453;28;20040;-73
2023/03/24 02:35:27;;;;;;;2.40;1.10;;;;;;;19.15;51.29;99648.69;5052235;28;21009;-72
2023/03/24 02:38:25;;;;;;;2.60;1.10;;;;;;;19.14;51.21;99661.06;5052362;28;20052;-72
2023/03/24 02:41:11;;;;;;;2.78;1.13;;;;;;;19.14;51.13;99655.78;5052097;28;20032;-70
2023/03/24 02:44:07;;;;;;;3.70;1.20;;;;;;;19.11;51.24;99650.00;5053428;28;20099;-72
2023/03/24 02:46:45;;;;;;;2.60;1.10;;;;;;;19.10;51.51;99662.38;5065415;28;20043;-71
2023/03/24 02:49:47;;;;;;;3.13;1.20;;;;;;;19.12;51.20;99670.13;5052044;28;20026;-72
2023/03/24 02:52:17;;;;;;;3.58;1.45;;;;;;;19.11;51.35;99673.78;5052287;28;20544;-72
2023/03/24 02:55:07;;;;;;;2.95;1.70;;;;;;;19.10;51.10;99678.22;5052923;28;20082;-73
2023/03/24 02:57:50;;;;;;;3.90;1.10;;;;;;;19.07;51.34;99675.06;5051920;28;20025;-72
2023/03/24 03:00:22;;;;;;;3.08;1.20;;;;;;;19.07;51.05;99689.09;5052657;28;20042;-72
2023/03/24 03:02:56;;;;;;;3.67;1.33;;;;;;;19.06;51.39;99703.28;5052594;28;20090;-73
2023/03/24 03:05:42;;;;;;;5.45;1.10;;;;;;;19.10;51.07;99717.00;5052506;28;20057;-72
2023/03/24 03:08:13;;;;;;;2.90;1.30;;;;;;;19.04;51.20;99710.53;5052223;28;20146;-72
2023/03/24 03:10:45;;;;;;;3.78;1.23;;;;;;;19.00;51.08;99717.13;5051885;28;20035;-71
2023/03/24 03:13:26;;;;;;;2.88;1.33;;;;;;;19.07;51.21;99719.97;5052280;28;20037;-72
2023/03/24 03:15:56;;;;;;;3.25;1.35;;;;;;;19.06;51.10;99729.69;5052066;28;20025;-72
2023/03/24 03:18:30;;;;;;;2.70;1.23;;;;;;;19.02;51.02;99739.72;5051898;28;20044;-72
2023/03/24 03:21:03;;;;;;;3.20;1.30;;;;;;;19.03;51.19;99761.69;5051587;28;20052;-71
2023/03/24 03:23:34;;;;;;;1.83;0.90;;;;;;;19.03;51.07;99756.41;5051803;28;20033;-71
2023/03/24 03:26:06;;;;;;;4.47;1.20;;;;;;;19.02;50.99;99752.13;5041735;28;20028;-72
2023/03/24 03:28:35;;;;;;;2.90;1.00;;;;;;;19.01;50.92;99748.66;5051486;28;20036;-74
2023/03/24 03:31:05;;;;;;;2.15;0.88;;;;;;;19.02;50.77;99760.03;5051844;28;20425;-73
2023/03/24 03:33:43;;;;;;;2.53;0.90;;;;;;;19.00;50.35;99775.22;5050714;28;20029;-73
2023/03/24 03:36:17;;;;;;;2.10;0.90;;;;;;;19.01;50.50;99801.47;5051666;28;20076;-72
2023/03/24 03:39:07;;;;;;;2.38;1.00;;;;;;;19.01;50.43;99805.94;5051226;28;20028;-72
2023/03/24 03:41:32;;;;;;;2.42;0.90;;;;;;;18.99;50.52;99811.38;5051359;28;20120;-72
2023/03/24 03:44:01;;;;;;;2.92;1.10;;;;;;;18.99;50.23;99810.50;5051553;28;20112;-72
2023/03/24 03:46:27;;;;;;;2.13;1.10;;;;;;;18.98;50.34;99827.34;5051804;28;20992;-73
2023/03/24 03:48:52;;;;;;;2.53;0.90;;;;;;;18.96;50.16;99803.75;5052081;28;20036;-72
2023/03/24 03:51:18;;;;;;;3.10;1.10;;;;;;;18.96;50.05;99827.50;5050865;28;20085;-73
2023/03/24 03:53:57;;;;;;;2.63;1.10;;;;;;;18.98;49.94;99830.00;5051401;28;20036;-72
2023/03/24 03:56:27;;;;;;;3.28;1.08;;;;;;;18.96;49.85;99821.38;5050823;28;20113;-73
2023/03/24 03:58:53;;;;;;;2.95;1.15;;;;;;;18.98;49.66;99841.38;5050722;28;20469;-72
2023/03/24 04:01:22;;;;;;;4.15;1.27;;;;;;;18.94;49.45;99834.75;5050771;28;20065;-71
2023/03/24 04:04:02;;;;;;;3.45;1.10;;;;;;;18.96;49.44;99839.88;5051283;28;20225;-73
2023/03/24 04:07:10;;;;;;;2.97;1.13;;;;;;;18.95;49.34;99854.06;5051255;28;20040;-73
2023/03/24 04:09:53;;;;;;;2.22;1.02;;;;;;;18.93;49.21;99863.94;5051286;28;20079;-72
2023/03/24 04:12:30;;;;;;;2.40;0.90;;;;;;;18.93;49.06;99877.13;5051202;28;20043;-73
2023/03/24 04:14:58;;;;;;;2.45;1.05;;;;;;;18.93;49.04;99877.97;5051160;28;20037;-73
2023/03/24 04:17:46;;;;;;;4.10;1.10;;;;;;;18.91;49.04;99882.56;5050556;28;20033;-72
2023/03/24 04:20:21;;;;;;;3.55;1.10;;;;;;;18.92;48.92;99896.63;5050574;28;20045;-72
2023/03/24 04:23:01;;;;;;;2.65;1.08;;;;;;;18.90;49.25;99904.69;5051155;28;20209;-72
2023/03/24 04:25:34;;;;;;;4.32;1.30;;;;;;;18.89;49.08;99905.66;5050950;28;20037;-72
2023/03/24 04:28:25;;;;;;;2.83;1.00;;;;;;;18.85;48.88;99894.59;5051386;28;20163;-72
2023/03/24 04:31:02;;;;;;;2.08;0.90;;;;;;;18.88;48.99;99904.00;5049895;28;20477;-73
2023/03/24 04:33:47;;;;;;;2.35;0.93;;;;;;;18.87;48.74;99910.28;5050888;28;20673;-73
2023/03/24 04:36:30;;;;;;;3.53;1.08;;;;;;;18.83;48.59;99912.38;5050089;28;20112;-71
2023/03/24 04:39:00;;;;;;;3.53;0.95;;;;;;;18.83;49.02;99920.28;5050982;28;20028;-72
2023/03/24 04:41:28;;;;;;;4.05;1.20;;;;;;;18.84;48.62;99921.13;5050358;28;20031;-73
2023/03/24 04:43:56;;;;;;;4.10;1.00;;;;;;;18.86;48.39;99927.06;5050818;28;20032;-72
2023/03/24 04:46:22;;;;;;;3.60;0.95;;;;;;;18.83;48.49;99920.28;5050654;28;20384;-74
2023/03/24 04:48:48;;;;;;;3.95;1.05;;;;;;;18.83;48.49;99928.19;5051302;28;20029;-72
2023/03/24 04:51:14;;;;;;;3.75;0.90;;;;;;;18.80;48.54;99931.13;5050381;28;20093;-73
2023/03/24 04:53:40;;;;;;;3.10;1.10;;;;;;;18.81;48.27;99938.06;5051048;28;20032;-72
2023/03/24 04:56:26;;;;;;;3.90;1.08;;;;;;;18.77;48.42;99931.44;5050498;28;20501;-74
2023/03/24 04:58:51;;;;;;;3.55;1.13;;;;;;;18.81;48.10;99939.88;5065134;28;20060;-72
2023/03/24 05:01:20;;;;;;;3.40;1.20;;;;;;;18.80;48.02;99933.78;5050070;28;20079;-73
2023/03/24 05:03:46;;;;;;;3.03;1.10;;;;;;;18.80;48.14;99940.84;5050478;28;20037;-74
2023/03/24 05:06:11;;;;;;;5.60;1.42;;;;;;;18.81;48.16;99947.78;5050574;28;20454;-73
2023/03/24 05:08:37;;;;;;;2.78;1.00;;;;;;;18.76;48.16;99940.31;5054249;28;20099;-74
2023/03/24 05:11:02;;;;;;;3.10;1.00;;;;;;;18.79;47.89;99947.13;5053168;28;20033;-73
2023/03/24 05:13:27;;;;;;;3.20;1.10;;;;;;;18.79;47.95;99950.59;5054286;28;21084;-72
2023/03/24 05:15:53;;;;;;;3.15;1.20;;;;;;;18.78;47.97;99959.47;5069578;28;20124;-73
2023/03/24 05:18:19;;;;;;;2.75;1.00;;;;;;;18.76;47.88;99960.63;5053905;28;20054;-72
2023/03/24 05:20:44;;;;;;;4.35;1.15;;;;;;;18.75;47.88;99967.69;5053479;28;20068;-72
2023/03/24 05:23:10;;;;;;;4.70;1.35;;;;;;;18.77;47.77;99970.19;5053416;28;20029;-72
2023/03/24 05:25:35;;;;;;;3.28;1.10;;;;;;;18.77;47.84;99971.03;5054534;28;20047;-73
2023/03/24 05:28:01;;;;;;;2.13;0.90;;;;;;;18.75;47.65;99969.50;5044207;28;20534;-73
2023/03/24 05:30:26;;;;;;;3.33;1.13;;;;;;;18.73;47.70;99974.94;5054410;28;20047;-73
2023/03/24 05:32:52;;;;;;;3.22;1.17;;;;;;;18.74;47.86;99975.75;5053949;28;20740;-73
2023/03/24 05:35:17;;;;;;;3.28;1.00;;;;;;;18.71;47.58;99973.41;5051155;28;20044;-73
2023/03/24 05:37:43;;;;;;;4.07;1.02;;;;;;;18.74;47.76;99979.25;5054183;28;20036;-72
2023/03/24 05:40:09;;;;;;;4.00;1.17;;;;;;;18.74;47.66;99984.53;5052194;28;20442;-73
2023/03/24 05:42:34;;;;;;;4.38;1.10;;;;;;;18.72;47.65;99989.09;5051180;28;20029;-72
2023/03/24 05:45:00;;;;;;;3.67;1.20;;;;;;;18.71;47.59;99984.81;5053898;28;20392;-72
2023/03/24 05:47:26;;;;;;;4.25;1.00;;;;;;;18.73;47.72;99992.59;5053262;28;20039;-72
2023/03/24 05:49:51;;;;;;;3.83;1.10;;;;;;;18.72;47.25;99998.84;5043730;28;20033;-71
2023/03/24 05:52:19;;;;;;;4.97;1.50;;;;;;;18.72;47.52;100006.75;5053040;28;20475;-72
2023/03/24 05:54:44;;;;;;;3.47;0.98;;;;;;;18.73;47.50;100003.16;5053825;28;20032;-73
2023/03/24 05:57:14;;;;;;;4.35;1.20;;;;;;;18.72;47.44;100014.69;5050945;28;20051;-73
2023/03/24 05:59:40;;;;;;;4.55;1.23;;;;;;;18.70;47.46;100006.91;5053994;28;20044;-73
2023/03/24 06:02:06;;;;;;;5.93;1.20;;;;;;;18.67;47.35;100000.13;5052440;28;20024;-72
2023/03/24 06:04:32;;;;;;;4.15;1.17;;;;;;;18.66;47.26;100003.75;5052452;28;20043;-72
2023/03/24 06:06:59;;;;;;;2.95;1.08;;;;;;;18.67;47.27;100010.69;5052065;28;20393;-73
2023/03/24 06:09:28;;;;;;;6.03;1.40;;;;;;;18.68;47.40;100008.88;5053749;28;20186;-72
2023/03/24 06:11:54;;;;;;;5.40;1.23;;;;;;;18.65;47.17;100002.06;5052469;28;20025;-73
2023/03/24 06:14:20;;;;;;;3.97;1.13;;;;;;;18.68;47.11;100012.34;5052816;28;20259;-73
2023/03/24 06:16:48;;;;;;;3.83;1.17;;;;;;;18.66;47.44;100011.66;5053687;28;20460;-73
2023/03/24 06:19:14;;;;;;;3.78;1.45;;;;;;;18.63;47.49;100016.41;5052956;28;20060;-72
2023/03/24 06:21:40;;;;;;;6.38;1.55;;;;;;;18.67;47.25;100023.03;5051354;28;20033;-73
2023/03/24 06:24:05;;;;;;;4.78;1.35;;;;;;;18.67;47.39;100029.16;5053908;28;20119;-74
2023/03/24 06:26:30;;;;;;;4.70;1.55;;;;;;;18.69;47.71;100021.06;5055014;28;20024;-73
2023/03/24 06:28:57;;;;;;;3.50;0.93;;;;;;;18.70;47.61;100033.31;5053148;28;20036;-73
2023/03/24 06:31:23;;;;;;;2.90;1.00;;;;;;;18.71;47.76;100032.34;5052684;28;20037;-73
2023/03/24 06:33:50;;;;;;;4.25;1.05;;;;;;;18.73;48.01;100040.09;5052637;28;20044;-72
2023/03/24 06:36:17;;;;;;;3.75;1.00;;;;;;;18.74;47.83;100033.81;5053082;28;20499;-72
2023/03/24 06:38:43;;;;;;;2.63;0.90;;;;;;;18.74;47.99;100039.97;5052713;28;20024;-74
2023/03/24 06:41:09;;;;;;;3.70;1.05;;;;;;;18.76;47.98;100047.72;5050932;28;20052;-72
2023/03/24 06:43:34;;;;;;;4.35;1.10;;;;;;;18.76;47.87;100048.53;5052004;28;20079;-71
2023/03/24 06:46:00;;;;;;;3.63;1.20;;;;;;;18.80;47.88;100047.28;5052419;28;20515;-73
2023/03/24 06:48:26;;;;;;;3.22;1.02;;;;;;;18.83;47.67;100048.78;5052791;28;20028;-73
2023/03/24 06:50:52;;;;;;;3.38;1.00;;;;;;;18.86;47.57;100056.44;5053447;28;20036;-72
2023/03/24 06:53:18;;;;;;;4.35;1.05;;;;;;;18.86;47.84;100053.78;5052451;28;20075;-73
2023/03/24 06:55:43;;;;;;;5.10;1.15;;;;;;;18.88;47.70;100051.81;5052898;28;20052;-73
2023/03/24 06:58:09;;;;;;;6.47;1.30;;;;;;;18.89;47.56;100050.03;5052023;28;20481;-72
2023/03/24 07:00:35;;;;;;;3.17;1.05;;;;;;;18.90;47.85;100057.81;5051989;28;20028;-72
2023/03/24 07:03:01;;;;;;;5.03;1.30;;;;;;;18.90;48.11;100052.53;5042238;28;20091;-74
2023/03/24 07:05:27;;;;;;;4.72;1.25;;;;;;;18.92;48.06;100045.28;5052504;28;20040;-75
2023/03/24 07:07:52;;;;;;;5.95;1.58;;;;;;;18.94;48.12;100055.69;5052179;28;20090;-74
2023/03/24 07:10:18;;;;;;;3.55;1.05;;;;;;;18.97;48.35;100063.31;5052128;28;21212;-74
2023/03/24 07:12:44;;;;;;;4.97;1.30;;;;;;;18.97;48.14;100063.31;5051441;28;20090;-74
2023/03/24 07:15:10;;;;;;;5.00;1.10;;;;;;;18.99;48.16;100058.72;5052355;28;20037;-74
2023/03/24 07:17:35;;;;;;;5.70;1.17;;;;;;;19.01;48.22;100072.63;5051617;28;20025;-73
2023/03/24 07:20:04;;;;;;;4.45;1.30;;;;;;;18.99;48.20;100066.63;5052101;28;20057;-71
2023/03/24 07:22:29;;;;;;;4.57;1.17;;;;;;;19.02;48.29;100069.81;5050983;28;20032;-71
2023/03/24 07:24:56;;;;;;;4.20;1.20;;;;;;;19.03;48.24;100068.00;5051342;28;20035;-72
2023/03/24 07:27:22;;;;;;;4.55;1.30;;;;;;;19.06;48.07;100070.34;5051531;28;20028;-71
2023/03/24 07:29:47;;;;;;;5.78;1.67;;;;;;;19.06;48.43;100065.06;5049354;28;20857;-72
2023/03/24 07:32:13;;;;;;;5.82;1.33;;;;;;;19.09;48.49;100071.84;5052420;28;20074;-71
2023/03/24 07:34:38;;;;;;;3.13;0.93;;;;;;;19.11;48.36;100085.75;5051449;28;20032;-73
2023/03/24 07:37:04;;;;;;;5.25;1.15;;;;;;;19.10;48.50;100095.47;5047656;28;20358;-73
2023/03/24 07:39:30;;;;;;;6.10;1.50;;;;;;;19.13;48.66;100095.16;5051241;28;20040;-72
2023/03/24 07:41:55;;;;;;;10.73;2.08;;;;;;;19.14;49.44;100102.13;5048937;28;20037;-69
2023/03/24 07:44:21;;;;;;;7.72;2.00;;;;;;;19.16;50.31;100101.97;5051324;28;20103;-70
2023/03/24 07:46:46;;;;;;;8.63;2.53;;;;;;;19.18;50.53;100094.72;5050499;28;20036;-70
2023/03/24 07:49:12;;;;;;;7.80;2.45;;;;;;;19.19;50.69;100102.50;5051868;28;20438;-70
2023/03/24 07:51:37;;;;;;;8.80;2.33;;;;;;;19.18;51.10;100103.50;5050081;28;20044;-70
2023/03/24 07:54:02;;;;;;;9.82;2.30;;;;;;;19.16;51.14;100092.25;5051617;28;20036;-72
2023/03/24 07:56:28;;;;;;;6.65;1.98;;;;;;;19.20;50.88;100103.31;5050861;28;20037;-71
2023/03/24 07:58:53;;;;;;;6.25;1.98;;;;;;;19.19;51.23;100099.03;5050719;28;20040;-68
2023/03/24 08:01:18;;;;;;;7.85;2.30;;;;;;;19.17;51.24;100107.13;5049682;28;20068;-69
2023/03/24 08:03:44;;;;;;;8.60;2.08;;;;;;;19.18;51.05;100106.16;5049323;28;20520;-70
2023/03/24 08:06:10;;;;;;;8.00;2.03;;;;;;;19.19;51.30;100114.88;5050651;28;20461;-68
2023/03/24 08:08:36;;;;;;;12.95;2.28;;;;;;;19.20;51.15;100119.16;5049597;28;20507;-68
2023/03/24 08:11:04;;;;;;;7.88;2.00;;;;;;;19.20;51.07;100113.88;5049561;28;20036;-74
2023/03/24 08:13:30;;;;;;;7.72;2.17;;;;;;;19.19;51.11;100115.72;5046369;28;20040;-68
2023/03/24 08:15:55;;;;;;;9.23;2.05;;;;;;;19.21;51.29;100126.94;5049197;28;20505;-70
2023/03/24 08:18:23;;;;;;;9.32;2.55;;;;;;;19.20;51.17;100124.47;5065125;28;20044;-71
2023/03/24 08:20:49;;;;;;;6.05;1.88;;;;;;;19.20;50.78;100127.94;5049667;28;20044;-70
2023/03/24 08:23:16;;;;;;;10.27;1.95;;;;;;;19.25;50.48;100134.56;5049835;28;20051;-72
2023/03/24 08:25:42;;;;;;;7.15;1.75;;;;;;;19.24;50.88;100132.94;5050033;28;20588;-71
2023/03/24 08:28:08;;;;;;;5.40;1.35;;;;;;;19.25;50.55;100135.44;5049939;28;20186;-70
2023/03/24 08:30:33;;;;;;;9.48;2.22;;;;;;;19.22;50.51;100133.09;5047658;28;20067;-70
2023/03/24 08:33:01;;;;;;;7.28;1.95;;;;;;;19.23;50.52;100136.53;5049203;28;20029;-71
2023/03/24 08:35:32;;;;;;;7.47;1.77;;;;;;;19.21;50.51;100141.97;5057374;28;20059;-70
2023/03/24 08:38:00;;;;;;;8.15;1.65;;;;;;;19.20;50.17;100138.50;5049432;28;20055;-70
2023/03/24 08:40:27;;;;;;;13.55;2.40;;;;;;;19.24;50.08;100144.31;5041490;28;20072;-72
2023/03/24 08:42:56;;;;;;;8.23;1.65;;;;;;;19.24;50.03;100139.03;5053809;28;20032;-69
2023/03/24 08:45:23;;;;;;;5.45;1.83;;;;;;;19.17;50.02;100130.88;5053605;28;20048;-70
2023/03/24 08:47:50;;;;;;;6.90;1.88;;;;;;;19.23;50.02;100153.22;5053576;28;20074;-70
2023/03/24 08:50:17;;;;;;;6.55;1.65;;;;;;;19.24;49.88;100148.78;5054088;28;20021;-70
2023/03/24 08:52:46;;;;;;;6.38;1.95;;;;;;;19.23;49.68;100150.56;5054076;28;20178;-72
2023/03/24 08:55:13;;;;;;;9.50;1.77;;;;;;;19.21;49.57;100153.38;5055370;28;20136;-70
2023/03/24 08:57:38;;;;;;;9.57;2.05;;;;;;;19.22;49.44;100159.50;5055008;28;20028;-71
2023/03/24 09:00:14;;;;;;;6.32;1.35;;;;;;;19.23;49.27;100169.06;5054255;28;20028;-71
2023/03/24 09:02:41;;;;;;;6.63;1.60;;;;;;;19.23;49.50;100157.69;5053872;28;20115;-72
2023/03/24 09:05:07;;;;;;;7.28;1.48;;;;;;;19.22;49.43;100162.13;5053762;28;20037;-70
2023/03/24 09:07:32;;;;;;;5.47;1.70;;;;;;;19.22;49.08;100162.13;5054582;28;20054;-70
2023/03/24 09:09:58;;;;;;;6.93;1.50;;;;;;;19.20;49.29;100159.66;5053547;28;20675;-72
2023/03/24 09:12:23;;;;;;;6.50;1.58;;;;;;;19.20;48.94;100159.66;5049715;28;20039;-70
2023/03/24 09:14:49;;;;;;;7.03;1.60;;;;;;;19.19;48.73;100152.69;5054172;28;20788;-71
2023/03/24 09:17:15;;;;;;;6.43;1.52;;;;;;;19.18;48.83;100161.63;5044828;28;20123;-69
2023/03/24 09:19:41;;;;;;;5.53;1.50;;;;;;;19.19;48.67;100170.34;5054877;28;20094;-69
2023/03/24 09:22:06;;;;;;;7.53;1.45;;;;;;;19.17;48.84;100173.16;5054037;28;20032;-69
2023/03/24 09:24:32;;;;;;;6.10;1.70;;;;;;;19.16;48.84;100171.47;5054840;28;20033;-69
2023/03/24 09:26:57;;;;;;;5.45;1.58;;;;;;;19.17;48.54;100181.06;5069275;28;20474;-69
2023/03/24 09:29:22;;;;;;;7.28;1.63;;;;;;;19.16;48.63;100173.28;5053816;28;20039;-70
2023/03/24 09:31:48;;;;;;;5.45;1.58;;;;;;;19.18;48.24;100172.19;5051970;28;20102;-70
2023/03/24 09:34:13;;;;;;;6.97;1.30;;;;;;;19.17;48.57;100193.47;5053684;28;20508;-70
2023/03/24 09:36:38;;;;;;;6.05;1.67;;;;;;;19.17;48.56;100196.09;5054121;28;20041;-71
2023/03/24 09:39:03;;;;;;;5.65;1.40;;;;;;;19.14;48.37;100191.09;5054186;28;20033;-70
2023/03/24 09:41:30;;;;;;;6.75;1.40;;;;;;;19.14;48.55;100196.38;5053220;28;20397;-71
2023/03/24 09:44:02;;;;;;;5.82;1.50;;;;;;;19.14;48.31;100193.75;5053667;28;20469;-71
2023/03/24 09:46:37;;;;;;;6.57;1.83;;;;;;;19.16;48.28;100207.63;5053196;28;20146;-72
2023/03/24 09:49:03;;;;;;;7.25;1.50;;;;;;;19.13;48.56;100195.53;5053727;28;20098;-71
2023/03/24 09:51:35;;;;;;;6.40;1.50;;;;;;;19.14;48.36;100197.22;5053387;28;20040;-69
2023/03/24 09:54:27;;;;;;;6.25;1.52;;;;;;;19.16;48.35;100200.53;5052755;28;20063;-70
2023/03/24 09:56:54;;;;;;;5.57;1.50;;;;;;;19.15;48.37;100192.75;5053200;28;20033;-71
2023/03/24 09:59:22;;;;;;;5.78;1.55;;;;;;;19.15;48.24;100198.03;5053838;28;20035;-67
2023/03/24 10:01:48;;;;;;;4.85;1.42;;;;;;;19.13;48.38;100192.06;5052933;28;20041;-70
2023/03/24 10:04:17;;;;;;;7.70;1.60;;;;;;;19.13;48.54;100189.44;5053543;28;20052;-69
2023/03/24 10:06:43;;;;;;;7.10;1.50;;;;;;;19.11;48.39;100186.94;5053222;28;20546;-69
2023/03/24 10:09:20;;;;;;;6.45;1.30;;;;;;;19.12;48.25;100195.69;5053116;28;20036;-70
2023/03/24 10:12:11;;;;;;;4.80;1.80;;;;;;;19.14;48.20;100202.50;5053144;28;20037;-69
2023/03/24 10:14:36;;;;;;;4.43;1.30;;;;;;;19.17;48.08;100201.38;5052859;28;20036;-72
2023/03/24 10:17:22;;;;;;;4.27;1.20;;;;;;;19.12;48.19;100196.53;5053643;28;20381;-69
2023/03/24 10:19:59;;;;;;;4.13;1.33;;;;;;;19.13;48.05;100219.31;5053281;28;20052;-69
2023/03/24 10:22:36;;;;;;;5.35;1.35;;;;;;;19.13;47.96;100208.75;5052711;28;20029;-69
2023/03/24 10:25:06;;;;;;;5.40;1.38;;;;;;;19.14;47.95;100207.78;5052581;28;20062;-68
2023/03/24 10:28:04;;;;;;;4.45;1.50;;;;;;;19.14;47.90;100212.25;5052616;28;20028;-68
2023/03/24 10:30:35;;;;;;;4.90;1.20;;;;;;;19.12;47.88;100215.03;5051032;28;20044;-69
2023/03/24 10:33:01;;;;;;;3.83;1.40;;;;;;;19.14;47.89;100212.25;5052474;28;20047;-69
2023/03/24 10:35:32;;;;;;;5.10;1.30;;;;;;;19.14;47.86;100197.22;5052480;28;20033;-69
2023/03/24 10:38:01;;;;;;;5.03;1.30;;;;;;;19.14;47.79;100205.13;5052684;28;20062;-70
2023/03/24 10:40:32;;;;;;;5.30;1.25;;;;;;;19.13;47.79;100190.25;5052909;28;20037;-70
2023/03/24 10:42:58;;;;;;;5.63;1.70;;;;;;;19.14;47.80;100210.41;5052559;28;20036;-69
2023/03/24 10:45:34;;;;;;;7.40;1.35;;;;;;;19.12;47.86;100207.09;5052670;28;20067;-69
2023/03/24 10:48:01;;;;;;;8.07;1.38;;;;;;;19.12;47.90;100195.69;5052246;28;20025;-70
2023/03/24 10:50:30;;;;;;;5.82;1.40;;;;;;;19.14;47.72;100207.78;5052269;28;20032;-71
2023/03/24 10:52:56;;;;;;;4.05;1.25;;;;;;;19.14;47.66;100207.78;5052802;28;20102;-69
2023/03/24 10:55:37;;;;;;;5.57;1.55;;;;;;;19.14;47.72;100206.97;5051682;28;20473;-71
2023/03/24 10:58:12;;;;;;;5.30;1.27;;;;;;;19.14;47.54;100191.94;5052363;28;20041;-70
2023/03/24 11:00:37;;;;;;;4.55;1.30;;;;;;;19.13;47.48;100194.72;5052714;28;20562;-70
2023/03/24 11:03:10;;;;;;;6.70;1.23;;;;;;;19.13;47.54;100202.63;5051884;28;20060;-70
2023/03/24 11:05:38;;;;;;;6.10;1.57;;;;;;;19.13;47.52;100195.53;5052351;28;20037;-70
2023/03/24 11:08:30;;;;;;;6.05;1.27;;;;;;;19.13;47.46;100200.00;5067469;28;20366;-70
2023/03/24 11:10:55;;;;;;;5.18;1.08;;;;;;;19.12;47.59;100193.91;5051198;28;20064;-70
2023/03/24 11:13:31;;;;;;;5.82;1.40;;;;;;;19.14;47.25;100197.22;5052019;28;20043;-70
2023/03/24 11:16:09;;;;;;;6.00;1.58;;;;;;;19.12;47.42;100198.31;5051618;28;20035;-71
2023/03/24 11:18:34;;;;;;;5.10;1.73;;;;;;;19.11;47.17;100199.31;5050240;28;20033;-70
2023/03/24 11:21:05;;;;;;;5.65;1.63;;;;;;;19.13;46.90;100200.00;5051339;28;20083;-72
2023/03/24 11:23:44;;;;;;;4.25;1.25;;;;;;;19.16;47.02;100210.28;5051990;28;20033;-72
2023/03/24 11:26:21;;;;;;;5.38;1.15;;;;;;;19.14;46.93;100189.28;5052355;28;20082;-68
2023/03/24 11:28:51;;;;;;;6.60;1.40;;;;;;;19.13;46.98;100192.91;5052438;28;20129;-71
2023/03/24 11:31:23;;;;;;;4.60;1.70;;;;;;;19.12;46.96;100193.03;5051552;28;20029;-71
2023/03/24 11:33:56;;;;;;;6.70;1.80;;;;;;;19.11;47.25;100188.75;5052233;28;20578;-70
2023/03/24 11:36:27;;;;;;;5.10;1.20;;;;;;;19.12;47.14;100185.13;5050546;28;20032;-71
2023/03/24 11:39:09;;;;;;;5.38;1.60;;;;;;;19.11;46.99;100197.50;5050316;28;20760;-71
2023/03/24 11:41:38;;;;;;;5.43;1.23;;;;;;;19.11;47.50;100202.78;5050948;28;20043;-72
2023/03/24 11:44:17;;;;;;;6.90;2.10;;;;;;;19.10;47.71;100205.56;5050276;28;20102;-72